Jersey Shore, Pennsylvania
Current Conditions -  °F | °C
As of 7:14 AM on Friday 19 Dec 2014 (Local Time) from KIPT Reporting Station
Overcast Overcast  
Wind Chill: 28°   Ceiling: 3000
Heat Index: 34°   Visibility: 10mi
Dew Point: 23°   Wind: 7mph
Humidity: 64%   Direction: 300°WNW
Pressure: 30.06"   Gusts: NA
Location:  41.2°N, 77.27°W
Report Text: KIPT 191214Z 30006KT 10SM OVC030 01/M05 A3006 RMK AO2 T00111050
Loading
Personal Weather Stations






























Interactive Weather Map New forecast layout! Learn more

10-Day Weather Forecast

Advertisements
Track Severe Weather on mobile